Time;durP1;ratioP1;P1;durP2;ratioP2;P2;SDS_P1;SDS_P2;PMS_P1;PMS_P2;Temp;Humidity;BMP_temperature;BMP_pressure;BME280_temperature;BME280_humidity;BME280_pressure;Samples;Min_cycle;Max_cycle;Signal;HPM_P1;HPM_P2
2021/06/05 00:00:21;;;;;;;8.98;6.45;;;;;;;19.22;56.06;101535.06;694529;28;10347;-65
2021/06/05 00:00:44;;;;;;;7.32;5.90;;;;;;;19.22;56.17;101536.97;692437;28;84088;-65
2021/06/05 00:01:07;;;;;;;6.80;6.22;;;;;;;19.22;56.29;101532.31;691717;28;58989;-65
2021/06/05 00:01:31;;;;;;;6.88;6.28;;;;;;;19.23;56.07;101539.50;692292;28;69946;-65
2021/06/05 00:01:54;;;;;;;7.00;6.25;;;;;;;19.23;56.22;101542.22;691585;28;93570;-65
2021/06/05 00:02:17;;;;;;;7.28;6.57;;;;;;;19.23;56.16;101527.66;695457;28;49341;-65
2021/06/05 00:02:38;;;;;;;6.97;6.35;;;;;;;19.23;56.05;101531.28;695091;28;70410;-65
2021/06/05 00:03:00;;;;;;;7.00;6.40;;;;;;;19.22;56.26;101529.56;696656;28;22240;-65
2021/06/05 00:03:23;;;;;;;6.78;6.18;;;;;;;19.22;56.05;101542.44;696116;28;46346;-65
2021/06/05 00:03:44;;;;;;;7.03;6.35;;;;;;;19.21;55.97;101538.84;694909;28;69465;-65
2021/06/05 00:04:05;;;;;;;7.13;6.43;;;;;;;19.20;56.17;101534.44;697064;28;22418;-65
2021/06/05 00:04:26;;;;;;;6.88;6.13;;;;;;;19.19;56.17;101532.75;693595;28;21209;-65
2021/06/05 00:04:48;;;;;;;6.95;6.35;;;;;;;19.21;56.04;101533.38;693787;28;17211;-65
2021/06/05 00:05:10;;;;;;;7.03;6.40;;;;;;;19.20;55.90;101534.44;694011;28;21531;-65
2021/06/05 00:05:36;;;;;;;6.87;6.20;;;;;;;19.19;56.22;101531.91;692105;28;67512;-65
2021/06/05 00:05:59;;;;;;;6.82;6.22;;;;;;;19.17;56.17;101526.66;689985;28;138238;-65
2021/06/05 00:06:21;;;;;;;7.20;6.45;;;;;;;19.18;56.00;101532.97;694351;28;45381;-65
2021/06/05 00:06:43;;;;;;;7.35;6.25;;;;;;;19.18;56.25;101531.06;695545;28;69563;-66
2021/06/05 00:07:04;;;;;;;6.55;5.97;;;;;;;19.16;56.24;101535.91;696863;28;22426;-65
2021/06/05 00:07:26;;;;;;;7.18;6.47;;;;;;;19.17;56.08;101532.13;695479;28;46321;-65
2021/06/05 00:07:47;;;;;;;7.88;7.00;;;;;;;19.16;56.15;101527.69;696003;28;46519;-65
2021/06/05 00:08:10;;;;;;;7.35;6.65;;;;;;;19.16;56.42;101530.44;695930;28;22429;-65
2021/06/05 00:08:33;;;;;;;7.00;6.40;;;;;;;19.16;56.25;101532.34;695962;28;44220;-65
2021/06/05 00:08:54;;;;;;;6.68;6.10;;;;;;;19.17;56.34;101526.66;695070;28;69542;-65
2021/06/05 00:09:16;;;;;;;6.85;6.22;;;;;;;19.17;56.11;101528.53;696160;28;44133;-65
2021/06/05 00:09:39;;;;;;;7.95;6.10;;;;;;;19.16;56.15;101529.59;696207;28;23540;-65
2021/06/05 00:10:01;;;;;;;6.65;6.00;;;;;;;19.17;56.36;101534.00;694617;28;93129;-65
2021/06/05 00:10:28;;;;;;;8.07;6.35;;;;;;;19.16;56.25;101538.66;695912;28;46423;-65
2021/06/05 00:10:55;;;;;;;6.72;6.05;;;;;;;19.14;56.20;101535.28;693176;28;138085;-65
2021/06/05 00:11:18;;;;;;;6.70;6.10;;;;;;;19.14;56.25;101527.09;692906;28;139013;-65
2021/06/05 00:11:41;;;;;;;7.00;5.93;;;;;;;19.13;56.41;101525.38;695434;28;69458;-66
2021/06/05 00:12:02;;;;;;;7.93;6.05;;;;;;;19.13;56.56;101527.31;694672;28;69465;-65
2021/06/05 00:12:26;;;;;;;7.13;6.43;;;;;;;19.14;56.25;101528.97;696746;28;21602;-65
2021/06/05 00:12:47;;;;;;;7.28;6.32;;;;;;;19.14;56.60;101526.22;694282;28;93103;-65
2021/06/05 00:13:11;;;;;;;6.82;6.13;;;;;;;19.13;56.49;101530.88;696568;28;23438;-65
2021/06/05 00:13:34;;;;;;;6.97;6.32;;;;;;;19.13;56.31;101532.78;694178;28;91512;-65
2021/06/05 00:13:57;;;;;;;6.82;6.13;;;;;;;19.12;56.35;101536.56;694578;28;67299;-65
2021/06/05 00:14:19;;;;;;;7.30;6.05;;;;;;;19.12;56.37;101525.59;692268;28;69436;-65
2021/06/05 00:14:40;;;;;;;7.10;6.47;;;;;;;19.14;56.34;101526.22;694161;28;22400;-65
2021/06/05 00:15:02;;;;;;;6.80;6.20;;;;;;;19.12;56.50;101531.09;693495;28;43740;-65
2021/06/05 00:15:27;;;;;;;7.00;6.30;;;;;;;19.11;56.45;101532.13;692693;28;45996;-65
2021/06/05 00:15:49;;;;;;;6.80;6.30;;;;;;;19.09;56.28;101529.63;690685;28;115227;-65
2021/06/05 00:16:16;;;;;;;6.38;5.88;;;;;;;19.09;56.35;101525.00;694347;28;46373;-65
2021/06/05 00:16:40;;;;;;;6.50;6.00;;;;;;;19.08;56.40;101523.28;693674;28;123189;-65
2021/06/05 00:17:02;;;;;;;6.63;6.10;;;;;;;19.07;56.56;101529.84;695284;28;38175;-65
2021/06/05 00:17:24;;;;;;;7.00;6.40;;;;;;;19.08;56.57;101528.78;693186;28;39946;-65
2021/06/05 00:17:46;;;;;;;7.13;6.43;;;;;;;19.08;56.63;101527.94;694907;28;945;-65
2021/06/05 00:18:07;;;;;;;7.18;6.30;;;;;;;19.08;56.51;101527.94;693306;28;23488;-65
2021/06/05 00:18:28;;;;;;;7.63;6.27;;;;;;;19.09;56.49;101535.09;693448;28;46336;-65
2021/06/05 00:18:51;;;;;;;7.25;6.00;;;;;;;19.07;56.39;101529.84;694154;28;1933;-65
2021/06/05 00:19:15;;;;;;;6.88;6.10;;;;;;;19.09;56.23;101524.16;695398;28;925;-65
2021/06/05 00:19:36;;;;;;;9.55;6.47;;;;;;;19.07;56.19;101535.31;694480;28;64455;-65
2021/06/05 00:19:58;;;;;;;7.15;6.15;;;;;;;19.07;56.54;101532.59;697523;28;1131;-65
2021/06/05 00:20:22;;;;;;;6.80;6.20;;;;;;;19.07;56.38;101532.59;693723;28;21203;-65
2021/06/05 00:20:44;;;;;;;7.38;6.30;;;;;;;19.06;56.39;101528.16;690536;28;112295;-65
2021/06/05 00:21:05;;;;;;;7.93;6.43;;;;;;;19.06;56.65;101530.88;693582;28;18331;-65
2021/06/05 00:21:28;;;;;;;7.10;6.40;;;;;;;19.05;56.29;101534.66;694086;28;22418;-66
2021/06/05 00:21:50;;;;;;;6.75;6.15;;;;;;;19.05;56.68;101528.38;693889;28;13437;-65
2021/06/05 00:22:12;;;;;;;6.57;5.97;;;;;;;19.06;56.28;101535.53;694335;28;21630;-65
2021/06/05 00:22:34;;;;;;;6.70;6.10;;;;;;;19.04;56.69;101537.63;697714;28;879;-65
2021/06/05 00:22:59;;;;;;;6.93;6.22;;;;;;;19.02;56.76;101531.53;697296;28;14356;-65
2021/06/05 00:23:23;;;;;;;7.32;6.60;;;;;;;19.02;56.77;101534.28;697410;28;943;-65
2021/06/05 00:23:45;;;;;;;7.15;6.47;;;;;;;19.04;56.51;101533.00;697109;28;1894;-65
2021/06/05 00:24:07;;;;;;;7.30;6.70;;;;;;;19.01;56.66;101527.97;697517;28;966;-65
2021/06/05 00:24:28;;;;;;;6.90;6.40;;;;;;;19.01;56.85;101533.44;695663;28;38636;-65
2021/06/05 00:24:51;;;;;;;6.60;6.00;;;;;;;19.01;56.76;101541.66;696906;28;23850;-65
2021/06/05 00:25:14;;;;;;;7.13;6.38;;;;;;;19.01;56.76;101538.91;695077;28;69114;-65
2021/06/05 00:25:35;;;;;;;6.88;6.20;;;;;;;18.99;56.94;101534.69;694606;28;68875;-65
2021/06/05 00:25:58;;;;;;;6.72;6.18;;;;;;;19.00;56.68;101539.13;696469;28;8897;-65
2021/06/05 00:26:19;;;;;;;7.35;6.28;;;;;;;18.98;56.58;101536.59;696409;28;36297;-65
2021/06/05 00:26:40;;;;;;;7.50;6.25;;;;;;;18.98;56.73;101533.00;692781;28;42859;-65
2021/06/05 00:27:01;;;;;;;6.82;6.22;;;;;;;18.99;56.40;101534.69;693873;28;23474;-65
2021/06/05 00:27:22;;;;;;;6.88;6.28;;;;;;;18.99;56.60;101534.69;693967;28;22483;-65
2021/06/05 00:27:43;;;;;;;6.78;6.18;;;;;;;18.98;56.43;101539.34;693782;28;19295;-65
2021/06/05 00:28:05;;;;;;;6.70;6.20;;;;;;;18.97;56.47;101545.84;693423;28;23509;-65
2021/06/05 00:28:27;;;;;;;6.60;5.88;;;;;;;18.94;56.80;101532.59;690113;28;46376;-65
2021/06/05 00:28:48;;;;;;;8.18;6.38;;;;;;;18.97;56.81;101539.56;692925;28;22375;-65
2021/06/05 00:29:09;;;;;;;7.55;6.60;;;;;;;18.98;56.56;101535.75;694887;28;861;-65
2021/06/05 00:29:30;;;;;;;7.45;6.75;;;;;;;18.97;56.74;101543.13;693253;28;22408;-65
2021/06/05 00:29:51;;;;;;;7.43;6.65;;;;;;;18.98;57.14;101531.13;693973;28;23528;-65
2021/06/05 00:30:13;;;;;;;8.35;6.40;;;;;;;18.98;56.79;101535.75;693956;28;36239;-65
2021/06/05 00:30:35;;;;;;;6.80;6.20;;;;;;;18.98;56.63;101533.88;695997;28;44176;-65
2021/06/05 00:30:56;;;;;;;7.72;6.53;;;;;;;18.97;56.53;101537.66;696842;28;23253;-65
2021/06/05 00:31:18;;;;;;;6.85;6.15;;;;;;;18.97;56.67;101531.34;696894;28;11734;-65
2021/06/05 00:31:39;;;;;;;6.78;5.90;;;;;;;18.96;56.78;101535.97;695943;28;45021;-65
2021/06/05 00:32:00;;;;;;;6.55;5.95;;;;;;;18.98;56.67;101542.06;695940;28;22415;-65
2021/06/05 00:32:21;;;;;;;7.18;6.22;;;;;;;18.99;56.82;101541.00;696027;28;45114;-65
2021/06/05 00:32:42;;;;;;;7.30;6.47;;;;;;;19.01;56.35;101538.06;693836;28;17548;-65
2021/06/05 00:33:05;;;;;;;8.93;6.40;;;;;;;19.00;56.55;101541.88;690655;28;20620;-65
2021/06/05 00:33:28;;;;;;;7.90;6.22;;;;;;;19.00;56.62;101534.47;691994;28;885;-65
2021/06/05 00:33:49;;;;;;;8.00;6.38;;;;;;;19.00;56.49;101530.91;690800;28;24973;-65
2021/06/05 00:34:10;;;;;;;8.98;6.35;;;;;;;19.00;56.22;101534.47;688003;28;22461;-65
2021/06/05 00:34:31;;;;;;;7.25;5.70;;;;;;;19.00;56.56;101534.47;689377;28;22404;-65
2021/06/05 00:34:52;;;;;;;6.10;5.60;;;;;;;19.00;56.60;101536.38;692508;28;24352;-65
2021/06/05 00:35:14;;;;;;;6.55;5.95;;;;;;;19.00;56.25;101539.97;694260;28;18374;-65
2021/06/05 00:35:36;;;;;;;7.35;6.00;;;;;;;18.99;56.39;101532.78;693677;28;25068;-65
2021/06/05 00:35:57;;;;;;;6.88;6.10;;;;;;;18.99;56.56;101527.31;693669;28;35099;-65
2021/06/05 00:36:19;;;;;;;6.80;6.07;;;;;;;18.99;56.41;101537.44;695932;28;45720;-65
2021/06/05 00:36:42;;;;;;;6.65;6.07;;;;;;;18.99;56.16;101534.69;693855;28;10088;-65
2021/06/05 00:37:03;;;;;;;6.82;6.22;;;;;;;18.98;56.20;101533.88;693325;28;28559;-65
2021/06/05 00:37:25;;;;;;;6.65;6.00;;;;;;;18.99;56.22;101531.97;690327;28;22396;-65
2021/06/05 00:37:46;;;;;;;6.38;5.80;;;;;;;18.99;56.39;101534.69;691277;28;23490;-65
2021/06/05 00:38:08;;;;;;;7.15;6.18;;;;;;;18.98;56.51;101533.00;690968;28;17626;-65
2021/06/05 00:38:29;;;;;;;7.03;6.20;;;;;;;18.97;56.47;101534.91;689958;28;70381;-65
2021/06/05 00:38:54;;;;;;;6.55;5.93;;;;;;;18.96;56.48;101533.22;693587;28;14809;-65
2021/06/05 00:39:15;;;;;;;8.25;6.20;;;;;;;18.96;56.27;101538.69;693810;28;46417;-65
2021/06/05 00:39:36;;;;;;;7.53;6.25;;;;;;;18.97;56.34;101534.91;696200;28;17143;-65
2021/06/05 00:39:59;;;;;;;6.63;6.03;;;;;;;18.95;56.35;101534.28;695493;28;23472;-65
2021/06/05 00:40:23;;;;;;;6.78;6.18;;;;;;;18.97;56.32;101531.34;694682;28;69467;-65
2021/06/05 00:40:49;;;;;;;6.60;6.00;;;;;;;18.96;56.58;101535.13;690553;28;92218;-65
2021/06/05 00:41:13;;;;;;;6.60;5.63;;;;;;;18.94;56.30;101534.50;689885;28;138444;-65
2021/06/05 00:41:34;;;;;;;7.03;5.97;;;;;;;18.94;56.48;101539.97;691733;28;82683;-65
2021/06/05 00:41:56;;;;;;;6.57;6.07;;;;;;;18.94;56.34;101542.72;687960;28;21724;-65
2021/06/05 00:42:17;;;;;;;6.78;6.18;;;;;;;18.94;56.59;101543.53;688055;28;23476;-65
2021/06/05 00:42:39;;;;;;;6.90;6.30;;;;;;;18.95;56.73;101539.75;686236;28;46323;-65
2021/06/05 00:43:00;;;;;;;6.65;6.05;;;;;;;18.95;56.72;101539.75;687698;28;23479;-65
2021/06/05 00:43:28;;;;;;;6.28;5.78;;;;;;;18.95;56.33;101538.91;684930;28;44392;-65
2021/06/05 00:43:52;;;;;;;7.10;6.40;;;;;;;18.96;56.25;101541.44;684678;28;134572;-65
2021/06/05 00:44:14;;;;;;;6.20;5.70;;;;;;;18.94;56.70;101535.34;688515;28;92338;-65
2021/06/05 00:44:36;;;;;;;7.07;6.47;;;;;;;18.95;56.53;101538.91;691067;28;68357;-65
2021/06/05 00:44:57;;;;;;;6.80;6.20;;;;;;;18.97;56.31;101536.81;694044;28;6396;-65
2021/06/05 00:45:20;;;;;;;7.82;6.25;;;;;;;18.96;56.43;101538.69;694596;28;45124;-65
2021/06/05 00:45:44;;;;;;;7.78;6.20;;;;;;;18.95;56.34;101539.75;692695;28;46408;-65
2021/06/05 00:46:06;;;;;;;6.68;6.00;;;;;;;18.95;56.29;101539.75;688240;28;81230;-65
2021/06/05 00:46:30;;;;;;;7.07;6.18;;;;;;;18.95;56.04;101542.50;689546;28;46294;-65
2021/06/05 00:46:51;;;;;;;6.60;6.10;;;;;;;18.94;56.30;101537.25;686171;28;68153;-65
2021/06/05 00:47:13;;;;;;;6.75;6.15;;;;;;;18.94;56.26;101538.06;684796;28;46422;-65
2021/06/05 00:47:34;;;;;;;6.97;6.40;;;;;;;18.95;56.17;101539.75;686528;28;13255;-65
2021/06/05 00:47:57;;;;;;;6.90;6.40;;;;;;;18.94;56.15;101540.81;689692;28;1407;-65
2021/06/05 00:48:20;;;;;;;6.70;6.05;;;;;;;18.93;56.63;101539.13;689640;28;34298;-65
2021/06/05 00:48:49;;;;;;;6.95;6.30;;;;;;;18.90;56.38;101536.81;685776;28;138036;-65
2021/06/05 00:49:11;;;;;;;6.68;5.70;;;;;;;18.91;56.65;101535.75;690920;28;33705;-65
2021/06/05 00:49:32;;;;;;;6.22;5.63;;;;;;;18.91;56.20;101535.75;691253;28;30948;-65
2021/06/05 00:50:01;;;;;;;6.88;6.20;;;;;;;18.88;56.40;101530.72;689785;28;61601;-65
2021/06/05 00:50:24;;;;;;;6.90;6.30;;;;;;;18.87;56.54;101539.97;687688;28;65863;-65
2021/06/05 00:50:47;;;;;;;6.78;6.18;;;;;;;18.87;56.87;101545.44;685735;28;62624;-65
2021/06/05 00:51:11;;;;;;;6.20;5.72;;;;;;;18.85;56.63;101539.34;687207;28;48549;-65
2021/06/05 00:51:40;;;;;;;6.40;5.90;;;;;;;18.86;56.77;101543.78;681969;28;136924;-65
2021/06/05 00:52:04;;;;;;;6.63;6.03;;;;;;;18.87;56.67;101543.56;681647;28;137251;-65
2021/06/05 00:52:28;;;;;;;6.60;6.10;;;;;;;18.86;56.64;101539.13;686672;28;95007;-65
2021/06/05 00:52:50;;;;;;;6.90;6.30;;;;;;;18.85;56.87;101537.44;688459;28;46520;-65
2021/06/05 00:53:14;;;;;;;6.90;6.25;;;;;;;18.85;56.74;101540.19;689251;28;65182;-65
2021/06/05 00:53:36;;;;;;;6.65;6.05;;;;;;;18.83;56.61;101535.97;689805;28;43812;-65
2021/06/05 00:53:58;;;;;;;6.63;6.03;;;;;;;18.84;56.72;101533.03;690763;28;18665;-65
2021/06/05 00:54:21;;;;;;;6.20;5.60;;;;;;;18.84;56.62;101538.50;691090;28;43628;-65
2021/06/05 00:54:43;;;;;;;6.30;5.80;;;;;;;18.83;56.86;101545.00;691025;28;93137;-65
2021/06/05 00:55:07;;;;;;;6.55;6.05;;;;;;;18.84;56.96;101540.34;689326;28;59325;-65
2021/06/05 00:55:31;;;;;;;6.38;5.78;;;;;;;18.82;56.81;101540.56;690440;28;83538;-65
2021/06/05 00:55:55;;;;;;;6.50;6.00;;;;;;;18.81;57.02;101544.38;690807;28;70740;-65
2021/06/05 00:56:18;;;;;;;6.97;6.28;;;;;;;18.78;57.04;101539.34;681781;28;124248;-65
2021/06/05 00:56:41;;;;;;;6.80;6.20;;;;;;;18.79;56.84;101535.53;682391;28;46339;-65
2021/06/05 00:57:06;;;;;;;6.30;5.78;;;;;;;18.78;56.90;101533.84;681721;28;68540;-65
2021/06/05 00:57:29;;;;;;;6.70;6.10;;;;;;;18.77;56.93;101539.53;678728;29;96784;-65
2021/06/05 00:57:52;;;;;;;6.90;6.18;;;;;;;18.76;56.91;101540.59;680612;29;41968;-65
2021/06/05 00:58:14;;;;;;;6.78;6.18;;;;;;;18.75;57.03;101537.03;682524;28;31966;-65
2021/06/05 00:58:40;;;;;;;6.72;6.10;;;;;;;18.72;57.12;101540.19;683004;28;38661;-65
2021/06/05 00:59:04;;;;;;;6.53;5.85;;;;;;;18.69;57.08;101537.88;685426;28;38262;-65
2021/06/05 00:59:30;;;;;;;6.53;5.93;;;;;;;18.68;57.19;101544.38;683664;28;132666;-65
2021/06/05 00:59:51;;;;;;;6.90;6.20;;;;;;;18.68;57.11;101538.91;685762;28;22495;-65
2021/06/05 01:00:17;;;;;;;6.60;6.05;;;;;;;18.68;57.09;101541.66;684988;28;40178;-65
2021/06/05 01:00:42;;;;;;;6.90;6.20;;;;;;;18.67;56.84;101543.53;687097;28;115375;-65
2021/06/05 01:01:06;;;;;;;6.85;6.00;;;;;;;18.65;57.14;101545.66;685464;28;99181;-65
2021/06/05 01:01:29;;;;;;;6.88;6.28;;;;;;;18.64;57.24;101537.66;687465;28;92313;-65
2021/06/05 01:01:51;;;;;;;6.72;6.13;;;;;;;18.64;57.49;101543.13;687577;28;92316;-65
2021/06/05 01:02:13;;;;;;;7.00;6.30;;;;;;;18.62;57.38;101540.63;690881;28;18409;-65
2021/06/05 01:02:34;;;;;;;8.18;6.45;;;;;;;18.60;57.33;101539.97;689949;28;42256;-65
2021/06/05 01:02:57;;;;;;;6.72;6.05;;;;;;;18.59;57.51;101541.03;691436;28;19554;-65
2021/06/05 01:03:18;;;;;;;6.97;6.28;;;;;;;18.57;57.24;101537.66;691127;28;10461;-65
2021/06/05 01:03:40;;;;;;;7.13;6.50;;;;;;;18.57;57.70;101540.38;689640;28;23537;-65
2021/06/05 01:04:02;;;;;;;7.25;6.50;;;;;;;18.56;57.51;101544.19;687429;28;60286;-65
2021/06/05 01:04:24;;;;;;;7.10;6.47;;;;;;;18.55;57.55;101539.75;690227;28;940;-65
2021/06/05 01:04:45;;;;;;;6.97;6.35;;;;;;;18.57;57.68;101534.09;688968;28;5636;-65
2021/06/05 01:05:07;;;;;;;7.07;6.38;;;;;;;18.57;57.52;101537.66;688472;28;11044;-65
2021/06/05 01:05:30;;;;;;;7.18;6.30;;;;;;;18.56;57.75;101538.72;688551;28;33657;-65
2021/06/05 01:05:55;;;;;;;6.75;6.15;;;;;;;18.55;57.61;101531.56;686975;28;56500;-65
2021/06/05 01:06:19;;;;;;;7.95;6.43;;;;;;;18.54;57.58;101536.19;689307;28;115280;-65
2021/06/05 01:06:51;;;;;;;8.20;6.68;;;;;;;18.54;57.85;101538.06;688174;28;108167;-65
2021/06/05 01:07:17;;;;;;;8.02;6.60;;;;;;;18.53;57.91;101536.41;683608;28;137418;-65
2021/06/05 01:07:38;;;;;;;7.35;6.07;;;;;;;18.53;57.70;101536.41;684770;28;68426;-65
2021/06/05 01:08:06;;;;;;;6.55;6.05;;;;;;;18.52;57.55;101540.19;688191;28;44098;-65
2021/06/05 01:08:31;;;;;;;7.03;6.33;;;;;;;18.50;57.80;101528.63;682072;28;156611;-65
2021/06/05 01:09:00;;;;;;;6.80;6.20;;;;;;;18.51;57.66;101535.75;684072;28;110456;-65
2021/06/05 01:09:26;;;;;;;8.07;6.40;;;;;;;18.49;58.02;101530.50;682303;28;137450;-65
2021/06/05 01:09:57;;;;;;;6.70;6.10;;;;;;;18.49;57.91;101529.66;682347;28;115439;-65
2021/06/05 01:10:24;;;;;;;7.20;6.57;;;;;;;18.48;57.90;101528.81;685293;28;65452;-65
2021/06/05 01:10:46;;;;;;;7.30;6.63;;;;;;;18.47;57.97;101529.03;680633;28;126146;-65
2021/06/05 01:11:13;;;;;;;7.20;6.55;;;;;;;18.45;57.88;101529.25;684901;28;69445;-65
2021/06/05 01:11:41;;;;;;;6.50;5.93;;;;;;;18.43;57.97;101531.34;685295;28;133471;-65
2021/06/05 01:12:06;;;;;;;7.07;6.47;;;;;;;18.41;58.21;101530.72;686597;28;136154;-65
2021/06/05 01:12:39;;;;;;;7.07;6.38;;;;;;;18.40;58.27;101525.44;688163;28;138145;-65
2021/06/05 01:13:07;;;;;;;6.50;5.90;;;;;;;18.39;57.92;101524.63;689606;28;137540;-65
2021/06/05 01:13:32;;;;;;;8.48;6.28;;;;;;;18.37;58.20;101529.47;689212;28;139177;-65
2021/06/05 01:14:25;;;;;;;7.28;6.53;;;;;;;18.36;58.10;101527.78;688876;28;148877;-65
2021/06/05 01:14:51;;;;;;;9.45;6.28;;;;;;;18.36;58.14;101525.88;690293;28;128617;-65
2021/06/05 01:15:15;;;;;;;6.82;6.18;;;;;;;18.36;58.27;101528.59;689885;28;125826;-65
2021/06/05 01:15:41;;;;;;;7.47;6.40;;;;;;;18.35;58.18;101531.53;688123;28;92185;-65
2021/06/05 01:16:06;;;;;;;7.28;6.60;;;;;;;18.35;57.97;101528.81;686679;28;114979;-65
2021/06/05 01:16:28;;;;;;;7.70;7.00;;;;;;;18.35;58.19;101528.81;684575;28;108283;-65
2021/06/05 01:16:50;;;;;;;7.20;6.60;;;;;;;18.36;58.15;101530.50;683781;28;67464;-65
2021/06/05 01:17:15;;;;;;;6.93;6.35;;;;;;;18.34;58.43;101525.25;684476;28;44522;-65
2021/06/05 01:17:39;;;;;;;6.95;6.25;;;;;;;18.35;58.23;101531.53;681835;28;113608;-65
2021/06/05 01:18:02;;;;;;;6.72;6.03;;;;;;;18.34;58.13;101527.97;683081;28;93329;-65
2021/06/05 01:18:30;;;;;;;7.57;6.20;;;;;;;18.34;58.26;101527.97;683039;28;136597;-65
2021/06/05 01:18:56;;;;;;;7.03;6.43;;;;;;;18.35;58.25;101528.81;684819;28;132919;-65
2021/06/05 01:19:32;;;;;;;7.03;6.43;;;;;;;18.33;58.34;101525.44;687726;28;93041;-65
2021/06/05 01:19:56;;;;;;;7.65;6.45;;;;;;;18.33;58.43;101536.38;686201;28;160614;-65
2021/06/05 01:20:23;;;;;;;6.85;6.15;;;;;;;18.32;58.66;101529.22;686145;28;92312;-65
2021/06/05 01:20:56;;;;;;;6.40;5.82;;;;;;;18.32;58.64;101531.97;685589;28;136323;-65
2021/06/05 01:21:33;;;;;;;7.00;6.30;;;;;;;18.31;58.47;101533.88;687486;28;138378;-65
2021/06/05 01:22:13;;;;;;;6.80;6.20;;;;;;;18.32;58.53;101534.69;687800;28;135883;-65
2021/06/05 01:22:46;;;;;;;7.40;6.53;;;;;;;18.31;58.61;101527.56;686175;28;137408;-65
2021/06/05 01:23:25;;;;;;;7.50;6.05;;;;;;;18.30;58.44;101531.34;686660;28;137782;-65
2021/06/05 01:23:49;;;;;;;6.82;6.22;;;;;;;18.28;58.22;101530.72;687280;28;138524;-65
2021/06/05 01:24:19;;;;;;;6.88;6.13;;;;;;;18.28;58.66;101536.19;690129;28;93194;-65
2021/06/05 01:24:49;;;;;;;7.00;6.30;;;;;;;18.26;58.80;101530.94;692801;28;138607;-65
2021/06/05 01:25:24;;;;;;;6.65;6.05;;;;;;;18.25;58.49;101531.13;692430;28;136127;-65
2021/06/05 01:25:58;;;;;;;6.75;6.07;;;;;;;18.24;58.91;101529.44;688219;28;137593;-65
2021/06/05 01:26:20;;;;;;;7.13;6.50;;;;;;;18.25;58.45;101531.97;684900;28;137758;-65
2021/06/05 01:26:46;;;;;;;6.93;6.40;;;;;;;18.25;58.76;101531.97;686729;28;67610;-65
2021/06/05 01:27:10;;;;;;;6.75;6.18;;;;;;;18.25;58.68;101528.41;685066;28;114592;-65
2021/06/05 01:27:34;;;;;;;6.45;5.85;;;;;;;18.25;58.95;101531.97;685757;28;91962;-65
2021/06/05 01:27:59;;;;;;;6.65;6.15;;;;;;;18.25;58.69;101529.22;682060;28;113615;-65
2021/06/05 01:28:23;;;;;;;7.40;6.13;;;;;;;18.24;58.56;101527.53;688070;28;70180;-65
2021/06/05 01:28:49;;;;;;;6.95;6.28;;;;;;;18.24;58.70;101527.53;687585;28;113602;-65
2021/06/05 01:29:14;;;;;;;6.55;5.95;;;;;;;18.25;58.64;101525.66;690405;28;97982;-65
2021/06/05 01:29:42;;;;;;;6.88;6.03;;;;;;;18.24;58.72;101526.69;690236;28;113156;-65
2021/06/05 01:30:09;;;;;;;6.88;6.25;;;;;;;18.21;58.59;101521.66;689839;28;132512;-65
2021/06/05 01:30:33;;;;;;;6.60;5.97;;;;;;;18.22;58.94;101532.38;687203;28;61766;-65
2021/06/05 01:30:59;;;;;;;6.63;5.93;;;;;;;18.23;58.86;101525.88;683607;28;132985;-66
2021/06/05 01:31:26;;;;;;;8.90;6.18;;;;;;;18.24;58.79;101533.00;682940;28;137874;-65
2021/06/05 01:31:51;;;;;;;6.68;6.05;;;;;;;18.25;58.76;101520.19;684507;28;107894;-65
2021/06/05 01:32:14;;;;;;;7.75;6.28;;;;;;;18.25;58.63;101522.94;687139;28;87420;-65
2021/06/05 01:32:36;;;;;;;6.70;6.10;;;;;;;18.24;58.61;101519.34;692569;28;14852;-65
2021/06/05 01:32:59;;;;;;;6.57;5.97;;;;;;;18.26;58.70;101527.31;689982;28;68492;-65
2021/06/05 01:33:24;;;;;;;6.50;6.00;;;;;;;18.25;58.80;101529.22;693712;28;1114;-65
2021/06/05 01:33:53;;;;;;;7.00;6.30;;;;;;;18.26;58.81;101520.00;689316;28;61313;-65
2021/06/05 01:34:15;;;;;;;7.70;6.00;;;;;;;18.26;58.63;101527.31;688585;28;57835;-65
2021/06/05 01:34:42;;;;;;;6.53;5.90;;;;;;;18.26;58.61;101527.31;688930;28;67506;-65
2021/06/05 01:35:05;;;;;;;7.45;6.68;;;;;;;18.26;58.42;101524.59;683964;28;128593;-65
2021/06/05 01:35:28;;;;;;;7.43;6.20;;;;;;;18.25;58.67;101525.66;687654;28;46415;-65
2021/06/05 01:35:51;;;;;;;6.72;5.95;;;;;;;18.24;58.59;101527.53;685230;28;90381;-65
2021/06/05 01:36:15;;;;;;;7.28;6.15;;;;;;;18.23;58.50;101525.00;688236;28;15281;-65
2021/06/05 01:36:44;;;;;;;7.28;6.20;;;;;;;18.23;58.84;101525.00;689918;28;60611;-65
2021/06/05 01:37:10;;;;;;;6.68;6.07;;;;;;;18.24;58.52;101530.28;686503;28;138701;-65
2021/06/05 01:37:41;;;;;;;7.15;6.25;;;;;;;18.23;58.26;101530.47;686243;28;134109;-65
2021/06/05 01:38:09;;;;;;;6.88;6.28;;;;;;;18.21;58.55;101533.41;688067;28;130881;-65
2021/06/05 01:38:31;;;;;;;6.85;6.20;;;;;;;18.21;58.29;101525.22;690424;28;69458;-65
2021/06/05 01:38:56;;;;;;;6.75;6.05;;;;;;;18.19;58.35;101525.44;691640;28;16083;-65
2021/06/05 01:39:23;;;;;;;6.95;6.25;;;;;;;18.18;58.45;101525.63;687296;28;161134;-65
2021/06/05 01:39:47;;;;;;;7.20;6.50;;;;;;;18.18;58.83;101522.91;687146;28;137836;-65
2021/06/05 01:40:10;;;;;;;6.65;6.13;;;;;;;18.17;58.93;101523.97;687893;28;76866;-65
2021/06/05 01:40:32;;;;;;;6.78;6.25;;;;;;;18.18;58.75;101525.63;684668;28;85895;-65
2021/06/05 01:40:56;;;;;;;8.57;6.40;;;;;;;18.17;58.60;101522.06;685298;28;5060;-65
2021/06/05 01:41:18;;;;;;;7.15;6.45;;;;;;;18.16;58.68;101523.09;681036;28;70962;-65
2021/06/05 01:41:41;;;;;;;8.20;6.78;;;;;;;18.16;58.77;101525.84;684197;28;44352;-65
2021/06/05 01:42:06;;;;;;;6.97;6.32;;;;;;;18.16;58.62;101527.75;683222;28;69418;-65
2021/06/05 01:42:35;;;;;;;6.68;6.03;;;;;;;18.13;58.70;101526.25;681037;28;138756;-65
2021/06/05 01:42:57;;;;;;;8.15;6.10;;;;;;;18.13;58.54;101525.44;684138;28;138761;-65
2021/06/05 01:43:26;;;;;;;6.57;6.07;;;;;;;18.14;58.59;101524.38;678668;28;136852;-65
2021/06/05 01:43:49;;;;;;;7.15;6.53;;;;;;;18.13;58.89;101533.63;680833;28;138088;-65
2021/06/05 01:44:13;;;;;;;6.88;6.28;;;;;;;18.12;58.45;101521.00;682520;28;69263;-65
2021/06/05 01:44:35;;;;;;;7.03;6.25;;;;;;;18.12;58.86;101523.72;686019;28;45069;-65
2021/06/05 01:44:58;;;;;;;7.03;6.45;;;;;;;18.12;59.04;101529.19;688416;28;50561;-65
2021/06/05 01:45:22;;;;;;;6.70;6.20;;;;;;;18.11;58.91;101519.34;690014;28;17008;-65
2021/06/05 01:45:46;;;;;;;6.82;6.22;;;;;;;18.11;58.73;101530.28;688860;28;90305;-65
2021/06/05 01:46:10;;;;;;;7.28;6.57;;;;;;;18.11;58.78;101522.06;689403;28;115138;-65
2021/06/05 01:46:38;;;;;;;7.22;6.53;;;;;;;18.10;58.71;101518.50;689733;28;60208;-65
2021/06/05 01:47:01;;;;;;;8.32;6.75;;;;;;;18.10;58.83;101523.09;688975;28;61879;-65
2021/06/05 01:47:23;;;;;;;7.30;6.60;;;;;;;18.09;58.82;101514.06;687762;28;21636;-65
2021/06/05 01:47:44;;;;;;;7.20;6.60;;;;;;;18.12;58.78;101526.47;686870;28;47491;-65
2021/06/05 01:48:09;;;;;;;7.78;6.97;;;;;;;18.13;58.71;101525.44;682587;28;69516;-65
2021/06/05 01:48:33;;;;;;;7.50;6.80;;;;;;;18.13;58.56;101528.16;678612;28;148089;-65
2021/06/05 01:48:57;;;;;;;7.35;6.63;;;;;;;18.12;58.68;101521.00;681139;28;69164;-65
2021/06/05 01:49:21;;;;;;;7.50;6.80;;;;;;;18.09;58.69;101519.53;678953;28;115992;-65
2021/06/05 01:49:48;;;;;;;7.57;6.88;;;;;;;18.08;58.85;101517.00;684117;28;138729;-65
2021/06/05 01:50:12;;;;;;;7.25;6.53;;;;;;;18.08;58.68;101517.00;684832;28;44537;-65
2021/06/05 01:50:39;;;;;;;7.13;6.38;;;;;;;18.07;58.73;101520.78;686402;28;86255;-65
2021/06/05 01:51:11;;;;;;;7.20;6.60;;;;;;;18.05;58.85;101518.25;685116;28;137722;-65
2021/06/05 01:51:40;;;;;;;7.35;6.70;;;;;;;18.05;58.64;101521.00;688858;28;61160;-65
2021/06/05 01:52:07;;;;;;;6.90;6.30;;;;;;;18.04;58.77;101516.59;687823;28;91466;-65
2021/06/05 01:52:32;;;;;;;7.10;6.50;;;;;;;18.02;58.91;101513.22;689112;28;138145;-65
2021/06/05 01:53:01;;;;;;;6.97;6.38;;;;;;;18.02;59.19;101524.16;689350;28;60570;-65